sensor_id;sensor_type;location;lat;lon;timestamp;P1;durP1;ratioP1;P2;durP2;ratioP2
39600;SDS011;25297;44.758;11.310;2023-02-23T00:01:14;76.50;;;43.00;;
39600;SDS011;25297;44.758;11.310;2023-02-23T00:03:41;82.63;;;44.15;;
39600;SDS011;25297;44.758;11.310;2023-02-23T00:06:08;78.60;;;44.45;;
39600;SDS011;25297;44.758;11.310;2023-02-23T00:08:35;80.55;;;43.38;;
39600;SDS011;25297;44.758;11.310;2023-02-23T00:11:02;77.57;;;41.88;;
39600;SDS011;25297;44.758;11.310;2023-02-23T00:13:29;86.88;;;45.67;;
39600;SDS011;25297;44.758;11.310;2023-02-23T00:15:56;85.40;;;44.55;;
39600;SDS011;25297;44.758;11.310;2023-02-23T00:18:22;78.50;;;43.95;;
39600;SDS011;25297;44.758;11.310;2023-02-23T00:20:54;75.40;;;42.75;;
39600;SDS011;25297;44.758;11.310;2023-02-23T00:23:21;77.30;;;42.78;;
39600;SDS011;25297;44.758;11.310;2023-02-23T00:25:47;82.82;;;45.28;;
39600;SDS011;25297;44.758;11.310;2023-02-23T00:28:13;79.72;;;44.55;;
39600;SDS011;25297;44.758;11.310;2023-02-23T00:30:39;82.18;;;43.50;;
39600;SDS011;25297;44.758;11.310;2023-02-23T00:33:04;85.72;;;44.90;;
39600;SDS011;25297;44.758;11.310;2023-02-23T00:35:31;77.05;;;41.55;;
39600;SDS011;25297;44.758;11.310;2023-02-23T00:37:57;84.80;;;43.05;;
39600;SDS011;25297;44.758;11.310;2023-02-23T00:40:23;77.53;;;42.28;;
39600;SDS011;25297;44.758;11.310;2023-02-23T00:42:49;85.45;;;45.83;;
39600;SDS011;25297;44.758;11.310;2023-02-23T00:45:16;77.25;;;43.50;;
39600;SDS011;25297;44.758;11.310;2023-02-23T00:47:44;77.85;;;43.15;;
39600;SDS011;25297;44.758;11.310;2023-02-23T00:50:10;77.55;;;44.45;;
39600;SDS011;25297;44.758;11.310;2023-02-23T00:52:39;81.28;;;43.92;;
39600;SDS011;25297;44.758;11.310;2023-02-23T00:55:06;80.95;;;45.40;;
39600;SDS011;25297;44.758;11.310;2023-02-23T00:57:33;85.75;;;43.88;;
39600;SDS011;25297;44.758;11.310;2023-02-23T00:59:58;81.88;;;44.97;;
39600;SDS011;25297;44.758;11.310;2023-02-23T01:02:24;75.90;;;42.75;;
39600;SDS011;25297;44.758;11.310;2023-02-23T01:04:54;75.65;;;44.58;;
39600;SDS011;25297;44.758;11.310;2023-02-23T01:07:20;80.25;;;45.08;;
39600;SDS011;25297;44.758;11.310;2023-02-23T01:09:49;80.43;;;45.13;;
39600;SDS011;25297;44.758;11.310;2023-02-23T01:12:15;80.57;;;44.85;;
39600;SDS011;25297;44.758;11.310;2023-02-23T01:14:41;77.50;;;44.80;;
39600;SDS011;25297;44.758;11.310;2023-02-23T01:17:07;80.18;;;42.90;;
39600;SDS011;25297;44.758;11.310;2023-02-23T01:19:32;77.05;;;42.72;;
39600;SDS011;25297;44.758;11.310;2023-02-23T01:21:58;80.00;;;44.70;;
39600;SDS011;25297;44.758;11.310;2023-02-23T01:24:26;84.63;;;44.45;;
39600;SDS011;25297;44.758;11.310;2023-02-23T01:26:53;78.65;;;41.50;;
39600;SDS011;25297;44.758;11.310;2023-02-23T01:29:18;80.55;;;43.58;;
39600;SDS011;25297;44.758;11.310;2023-02-23T01:31:45;84.72;;;44.53;;
39600;SDS011;25297;44.758;11.310;2023-02-23T01:34:15;79.25;;;42.40;;
39600;SDS011;25297;44.758;11.310;2023-02-23T01:36:42;74.20;;;43.70;;
39600;SDS011;25297;44.758;11.310;2023-02-23T01:39:10;80.68;;;43.17;;
39600;SDS011;25297;44.758;11.310;2023-02-23T01:41:38;72.70;;;42.00;;
39600;SDS011;25297;44.758;11.310;2023-02-23T01:46:38;77.30;;;43.38;;
39600;SDS011;25297;44.758;11.310;2023-02-23T01:49:07;74.38;;;42.63;;
39600;SDS011;25297;44.758;11.310;2023-02-23T01:51:38;73.85;;;43.08;;
39600;SDS011;25297;44.758;11.310;2023-02-23T01:54:11;82.20;;;46.27;;
39600;SDS011;25297;44.758;11.310;2023-02-23T01:56:40;80.35;;;45.03;;
39600;SDS011;25297;44.758;11.310;2023-02-23T01:59:09;79.38;;;42.75;;
39600;SDS011;25297;44.758;11.310;2023-02-23T02:01:37;74.75;;;42.00;;
39600;SDS011;25297;44.758;11.310;2023-02-23T02:04:06;77.55;;;43.80;;
39600;SDS011;25297;44.758;11.310;2023-02-23T02:06:33;77.63;;;42.38;;
39600;SDS011;25297;44.758;11.310;2023-02-23T02:09:06;80.63;;;44.60;;
39600;SDS011;25297;44.758;11.310;2023-02-23T02:11:34;80.05;;;43.30;;
39600;SDS011;25297;44.758;11.310;2023-02-23T02:25:35;80.53;;;45.65;;
39600;SDS011;25297;44.758;11.310;2023-02-23T02:31:23;83.18;;;46.15;;
39600;SDS011;25297;44.758;11.310;2023-02-23T02:47:16;80.63;;;43.95;;
39600;SDS011;25297;44.758;11.310;2023-02-23T02:49:51;78.13;;;42.33;;
39600;SDS011;25297;44.758;11.310;2023-02-23T02:52:40;75.30;;;40.72;;
39600;SDS011;25297;44.758;11.310;2023-02-23T02:55:13;75.85;;;41.03;;
39600;SDS011;25297;44.758;11.310;2023-02-23T02:57:43;74.95;;;42.03;;
39600;SDS011;25297;44.758;11.310;2023-02-23T03:00:21;77.55;;;41.60;;
39600;SDS011;25297;44.758;11.310;2023-02-23T03:06:17;80.38;;;42.47;;
39600;SDS011;25297;44.758;11.310;2023-02-23T03:09:10;74.97;;;41.22;;
39600;SDS011;25297;44.758;11.310;2023-02-23T03:15:39;77.13;;;43.05;;
39600;SDS011;25297;44.758;11.310;2023-02-23T03:24:36;77.80;;;41.20;;
39600;SDS011;25297;44.758;11.310;2023-02-23T03:31:04;75.20;;;41.60;;
39600;SDS011;25297;44.758;11.310;2023-02-23T03:33:43;77.22;;;42.97;;
39600;SDS011;25297;44.758;11.310;2023-02-23T03:36:45;76.38;;;42.33;;
39600;SDS011;25297;44.758;11.310;2023-02-23T03:39:36;77.55;;;41.65;;
39600;SDS011;25297;44.758;11.310;2023-02-23T03:42:26;65.13;;;37.15;;
39600;SDS011;25297;44.758;11.310;2023-02-23T03:45:15;75.60;;;40.58;;
39600;SDS011;25297;44.758;11.310;2023-02-23T03:48:03;85.60;;;44.38;;
39600;SDS011;25297;44.758;11.310;2023-02-23T03:50:51;71.18;;;41.28;;
39600;SDS011;25297;44.758;11.310;2023-02-23T03:53:43;76.72;;;40.80;;
39600;SDS011;25297;44.758;11.310;2023-02-23T03:56:50;80.43;;;43.57;;
39600;SDS011;25297;44.758;11.310;2023-02-23T03:59:38;69.47;;;38.30;;
39600;SDS011;25297;44.758;11.310;2023-02-23T04:02:26;71.90;;;40.33;;
39600;SDS011;25297;44.758;11.310;2023-02-23T04:05:14;75.70;;;41.22;;
39600;SDS011;25297;44.758;11.310;2023-02-23T04:08:02;75.38;;;41.67;;
39600;SDS011;25297;44.758;11.310;2023-02-23T04:10:50;74.75;;;40.53;;
39600;SDS011;25297;44.758;11.310;2023-02-23T04:13:41;72.45;;;39.65;;
39600;SDS011;25297;44.758;11.310;2023-02-23T04:16:09;76.68;;;41.10;;
39600;SDS011;25297;44.758;11.310;2023-02-23T04:18:36;76.90;;;42.85;;
39600;SDS011;25297;44.758;11.310;2023-02-23T04:21:03;69.03;;;39.85;;
39600;SDS011;25297;44.758;11.310;2023-02-23T04:23:30;79.80;;;45.60;;
39600;SDS011;25297;44.758;11.310;2023-02-23T04:25:56;79.22;;;44.00;;
39600;SDS011;25297;44.758;11.310;2023-02-23T04:28:22;80.90;;;43.42;;
39600;SDS011;25297;44.758;11.310;2023-02-23T04:30:50;76.85;;;43.22;;
39600;SDS011;25297;44.758;11.310;2023-02-23T04:33:17;83.68;;;46.22;;
39600;SDS011;25297;44.758;11.310;2023-02-23T04:35:42;81.97;;;43.30;;
39600;SDS011;25297;44.758;11.310;2023-02-23T04:38:08;74.45;;;42.30;;
39600;SDS011;25297;44.758;11.310;2023-02-23T04:40:34;74.97;;;40.88;;
39600;SDS011;25297;44.758;11.310;2023-02-23T04:43:00;82.32;;;46.35;;
39600;SDS011;25297;44.758;11.310;2023-02-23T04:45:26;73.95;;;42.40;;
39600;SDS011;25297;44.758;11.310;2023-02-23T04:47:51;77.95;;;42.55;;
39600;SDS011;25297;44.758;11.310;2023-02-23T04:50:17;71.93;;;41.17;;
39600;SDS011;25297;44.758;11.310;2023-02-23T04:52:44;76.65;;;43.33;;
39600;SDS011;25297;44.758;11.310;2023-02-23T04:55:15;80.65;;;43.28;;
39600;SDS011;25297;44.758;11.310;2023-02-23T04:57:43;79.80;;;42.13;;
39600;SDS011;25297;44.758;11.310;2023-02-23T05:00:09;78.07;;;41.15;;
39600;SDS011;25297;44.758;11.310;2023-02-23T05:02:35;81.65;;;42.92;;
39600;SDS011;25297;44.758;11.310;2023-02-23T05:05:01;73.50;;;42.60;;
39600;SDS011;25297;44.758;11.310;2023-02-23T05:07:27;80.43;;;41.80;;
39600;SDS011;25297;44.758;11.310;2023-02-23T05:09:52;74.32;;;40.30;;
39600;SDS011;25297;44.758;11.310;2023-02-23T05:12:18;82.88;;;43.45;;
39600;SDS011;25297;44.758;11.310;2023-02-23T05:14:44;82.43;;;45.40;;
39600;SDS011;25297;44.758;11.310;2023-02-23T05:17:10;73.53;;;40.78;;
39600;SDS011;25297;44.758;11.310;2023-02-23T05:19:35;79.90;;;43.13;;
39600;SDS011;25297;44.758;11.310;2023-02-23T05:22:02;79.53;;;42.72;;
39600;SDS011;25297;44.758;11.310;2023-02-23T05:24:27;89.10;;;44.80;;
39600;SDS011;25297;44.758;11.310;2023-02-23T05:26:53;84.28;;;44.42;;
39600;SDS011;25297;44.758;11.310;2023-02-23T05:29:19;76.72;;;42.63;;
39600;SDS011;25297;44.758;11.310;2023-02-23T05:31:44;83.90;;;44.03;;
39600;SDS011;25297;44.758;11.310;2023-02-23T05:34:12;77.38;;;42.70;;
39600;SDS011;25297;44.758;11.310;2023-02-23T05:36:38;79.43;;;42.78;;
39600;SDS011;25297;44.758;11.310;2023-02-23T05:39:04;77.47;;;42.63;;
39600;SDS011;25297;44.758;11.310;2023-02-23T05:41:30;74.60;;;42.47;;
39600;SDS011;25297;44.758;11.310;2023-02-23T05:43:55;82.57;;;43.40;;
39600;SDS011;25297;44.758;11.310;2023-02-23T05:46:22;81.40;;;45.17;;
39600;SDS011;25297;44.758;11.310;2023-02-23T05:48:53;81.38;;;42.45;;
39600;SDS011;25297;44.758;11.310;2023-02-23T05:51:25;78.07;;;42.08;;
39600;SDS011;25297;44.758;11.310;2023-02-23T05:53:52;73.13;;;40.65;;
39600;SDS011;25297;44.758;11.310;2023-02-23T05:56:17;76.85;;;42.40;;
39600;SDS011;25297;44.758;11.310;2023-02-23T05:58:47;77.75;;;44.80;;
39600;SDS011;25297;44.758;11.310;2023-02-23T06:01:13;77.20;;;43.28;;
39600;SDS011;25297;44.758;11.310;2023-02-23T06:03:39;73.13;;;42.72;;
39600;SDS011;25297;44.758;11.310;2023-02-23T06:06:05;71.63;;;41.35;;
39600;SDS011;25297;44.758;11.310;2023-02-23T06:08:31;82.75;;;44.33;;
39600;SDS011;25297;44.758;11.310;2023-02-23T06:10:57;73.68;;;41.35;;
39600;SDS011;25297;44.758;11.310;2023-02-23T06:13:22;76.18;;;43.63;;
39600;SDS011;25297;44.758;11.310;2023-02-23T06:15:48;71.80;;;40.88;;
39600;SDS011;25297;44.758;11.310;2023-02-23T06:18:14;73.75;;;42.92;;
39600;SDS011;25297;44.758;11.310;2023-02-23T06:20:41;80.75;;;45.00;;
39600;SDS011;25297;44.758;11.310;2023-02-23T06:23:06;85.75;;;43.38;;
39600;SDS011;25297;44.758;11.310;2023-02-23T06:25:32;79.47;;;44.08;;
39600;SDS011;25297;44.758;11.310;2023-02-23T06:28:11;81.30;;;45.17;;
39600;SDS011;25297;44.758;11.310;2023-02-23T06:30:37;88.72;;;45.63;;
39600;SDS011;25297;44.758;11.310;2023-02-23T06:33:03;76.00;;;41.15;;
39600;SDS011;25297;44.758;11.310;2023-02-23T06:35:30;76.13;;;42.13;;
39600;SDS011;25297;44.758;11.310;2023-02-23T06:37:56;82.53;;;43.30;;
39600;SDS011;25297;44.758;11.310;2023-02-23T06:40:22;86.45;;;44.53;;
39600;SDS011;25297;44.758;11.310;2023-02-23T06:42:48;75.03;;;42.63;;
39600;SDS011;25297;44.758;11.310;2023-02-23T06:45:14;74.93;;;40.38;;
39600;SDS011;25297;44.758;11.310;2023-02-23T06:47:40;82.30;;;44.97;;
39600;SDS011;25297;44.758;11.310;2023-02-23T06:50:06;80.03;;;44.40;;
39600;SDS011;25297;44.758;11.310;2023-02-23T06:52:33;79.70;;;43.85;;
39600;SDS011;25297;44.758;11.310;2023-02-23T06:54:58;75.25;;;41.92;;
39600;SDS011;25297;44.758;11.310;2023-02-23T06:57:24;78.07;;;41.75;;
39600;SDS011;25297;44.758;11.310;2023-02-23T06:59:50;78.32;;;42.95;;
39600;SDS011;25297;44.758;11.310;2023-02-23T07:02:15;84.80;;;45.30;;
39600;SDS011;25297;44.758;11.310;2023-02-23T07:04:41;77.95;;;43.30;;
39600;SDS011;25297;44.758;11.310;2023-02-23T07:07:07;76.45;;;43.53;;
39600;SDS011;25297;44.758;11.310;2023-02-23T07:09:33;81.10;;;43.85;;
39600;SDS011;25297;44.758;11.310;2023-02-23T07:11:59;77.70;;;43.42;;
39600;SDS011;25297;44.758;11.310;2023-02-23T07:14:25;71.22;;;42.05;;
39600;SDS011;25297;44.758;11.310;2023-02-23T07:16:51;79.13;;;41.90;;
39600;SDS011;25297;44.758;11.310;2023-02-23T07:19:16;80.50;;;42.80;;
39600;SDS011;25297;44.758;11.310;2023-02-23T07:21:42;79.32;;;43.25;;
39600;SDS011;25297;44.758;11.310;2023-02-23T07:24:08;79.20;;;42.25;;
39600;SDS011;25297;44.758;11.310;2023-02-23T07:26:33;75.22;;;43.15;;
39600;SDS011;25297;44.758;11.310;2023-02-23T07:28:59;80.30;;;45.65;;
39600;SDS011;25297;44.758;11.310;2023-02-23T07:31:25;87.68;;;45.40;;
39600;SDS011;25297;44.758;11.310;2023-02-23T07:33:51;78.55;;;44.65;;
39600;SDS011;25297;44.758;11.310;2023-02-23T07:36:21;90.07;;;48.67;;
39600;SDS011;25297;44.758;11.310;2023-02-23T07:38:47;82.93;;;46.95;;
39600;SDS011;25297;44.758;11.310;2023-02-23T07:41:13;87.32;;;48.13;;
39600;SDS011;25297;44.758;11.310;2023-02-23T07:46:38;95.05;;;49.65;;
39600;SDS011;25297;44.758;11.310;2023-02-23T07:49:04;81.65;;;47.58;;
39600;SDS011;25297;44.758;11.310;2023-02-23T07:51:29;86.07;;;48.28;;
39600;SDS011;25297;44.758;11.310;2023-02-23T07:53:56;89.88;;;49.15;;
39600;SDS011;25297;44.758;11.310;2023-02-23T07:56:26;87.57;;;49.38;;
39600;SDS011;25297;44.758;11.310;2023-02-23T07:58:52;87.20;;;47.80;;
39600;SDS011;25297;44.758;11.310;2023-02-23T08:01:20;85.82;;;47.97;;
39600;SDS011;25297;44.758;11.310;2023-02-23T08:03:49;93.70;;;50.60;;
39600;SDS011;25297;44.758;11.310;2023-02-23T08:06:27;97.90;;;53.72;;
39600;SDS011;25297;44.758;11.310;2023-02-23T08:09:01;91.35;;;51.88;;
39600;SDS011;25297;44.758;11.310;2023-02-23T08:11:28;95.63;;;51.83;;
39600;SDS011;25297;44.758;11.310;2023-02-23T08:13:57;93.90;;;52.20;;
39600;SDS011;25297;44.758;11.310;2023-02-23T08:16:25;95.18;;;52.70;;
39600;SDS011;25297;44.758;11.310;2023-02-23T08:18:52;98.57;;;51.75;;
39600;SDS011;25297;44.758;11.310;2023-02-23T08:21:18;99.07;;;54.35;;
39600;SDS011;25297;44.758;11.310;2023-02-23T08:23:43;93.18;;;54.35;;
39600;SDS011;25297;44.758;11.310;2023-02-23T08:26:09;102.70;;;54.08;;
39600;SDS011;25297;44.758;11.310;2023-02-23T08:34:29;105.25;;;55.80;;
39600;SDS011;25297;44.758;11.310;2023-02-23T08:36:57;137.45;;;55.58;;
39600;SDS011;25297;44.758;11.310;2023-02-23T08:39:27;102.20;;;56.92;;
39600;SDS011;25297;44.758;11.310;2023-02-23T08:41:55;102.15;;;55.28;;
39600;SDS011;25297;44.758;11.310;2023-02-23T08:44:21;97.00;;;54.55;;
39600;SDS011;25297;44.758;11.310;2023-02-23T08:46:47;101.20;;;56.75;;
39600;SDS011;25297;44.758;11.310;2023-02-23T08:49:12;94.63;;;53.63;;
39600;SDS011;25297;44.758;11.310;2023-02-23T08:51:38;107.78;;;56.63;;
39600;SDS011;25297;44.758;11.310;2023-02-23T08:54:05;103.88;;;58.80;;
39600;SDS011;25297;44.758;11.310;2023-02-23T08:56:36;108.72;;;60.05;;
39600;SDS011;25297;44.758;11.310;2023-02-23T08:59:03;105.47;;;58.15;;
39600;SDS011;25297;44.758;11.310;2023-02-23T09:01:29;99.70;;;55.83;;
39600;SDS011;25297;44.758;11.310;2023-02-23T09:03:55;104.25;;;58.10;;
39600;SDS011;25297;44.758;11.310;2023-02-23T09:06:21;101.38;;;56.65;;
39600;SDS011;25297;44.758;11.310;2023-02-23T09:08:49;104.90;;;57.40;;
39600;SDS011;25297;44.758;11.310;2023-02-23T09:11:15;104.10;;;59.42;;
39600;SDS011;25297;44.758;11.310;2023-02-23T09:13:41;116.25;;;61.40;;
39600;SDS011;25297;44.758;11.310;2023-02-23T09:16:07;107.40;;;59.53;;
39600;SDS011;25297;44.758;11.310;2023-02-23T09:18:33;105.45;;;58.75;;
39600;SDS011;25297;44.758;11.310;2023-02-23T09:21:00;116.40;;;61.65;;
39600;SDS011;25297;44.758;11.310;2023-02-23T09:23:31;108.53;;;59.22;;
39600;SDS011;25297;44.758;11.310;2023-02-23T09:26:01;115.93;;;65.97;;
39600;SDS011;25297;44.758;11.310;2023-02-23T09:28:30;119.72;;;66.25;;
39600;SDS011;25297;44.758;11.310;2023-02-23T09:30:58;115.72;;;64.22;;
39600;SDS011;25297;44.758;11.310;2023-02-23T09:33:31;111.38;;;61.70;;
39600;SDS011;25297;44.758;11.310;2023-02-23T09:35:56;121.55;;;66.38;;
39600;SDS011;25297;44.758;11.310;2023-02-23T09:38:22;110.75;;;62.85;;
39600;SDS011;25297;44.758;11.310;2023-02-23T09:40:49;119.57;;;61.20;;
39600;SDS011;25297;44.758;11.310;2023-02-23T09:48:44;122.38;;;67.75;;
39600;SDS011;25297;44.758;11.310;2023-02-23T09:51:11;117.97;;;65.85;;
39600;SDS011;25297;44.758;11.310;2023-02-23T09:59:05;128.98;;;69.63;;
39600;SDS011;25297;44.758;11.310;2023-02-23T10:01:51;121.60;;;67.78;;
39600;SDS011;25297;44.758;11.310;2023-02-23T10:04:30;136.95;;;72.38;;
39600;SDS011;25297;44.758;11.310;2023-02-23T10:15:22;128.52;;;70.53;;
39600;SDS011;25297;44.758;11.310;2023-02-23T10:20:32;127.88;;;69.53;;
39600;SDS011;25297;44.758;11.310;2023-02-23T10:23:27;132.20;;;71.85;;
39600;SDS011;25297;44.758;11.310;2023-02-23T10:26:03;129.60;;;71.68;;
39600;SDS011;25297;44.758;11.310;2023-02-23T10:28:34;135.05;;;73.00;;
39600;SDS011;25297;44.758;11.310;2023-02-23T10:31:01;136.82;;;75.72;;
39600;SDS011;25297;44.758;11.310;2023-02-23T10:33:44;131.90;;;70.93;;
39600;SDS011;25297;44.758;11.310;2023-02-23T10:36:18;128.30;;;71.47;;
39600;SDS011;25297;44.758;11.310;2023-02-23T10:39:03;137.75;;;72.40;;
39600;SDS011;25297;44.758;11.310;2023-02-23T10:41:32;139.27;;;74.47;;
39600;SDS011;25297;44.758;11.310;2023-02-23T10:43:59;133.23;;;77.05;;
39600;SDS011;25297;44.758;11.310;2023-02-23T10:46:28;137.02;;;76.35;;
39600;SDS011;25297;44.758;11.310;2023-02-23T10:49:00;132.55;;;75.10;;
39600;SDS011;25297;44.758;11.310;2023-02-23T10:51:28;131.68;;;71.60;;
39600;SDS011;25297;44.758;11.310;2023-02-23T10:53:58;134.02;;;72.30;;
39600;SDS011;25297;44.758;11.310;2023-02-23T10:56:48;133.32;;;71.55;;
39600;SDS011;25297;44.758;11.310;2023-02-23T10:59:17;137.02;;;73.68;;
39600;SDS011;25297;44.758;11.310;2023-02-23T11:01:45;130.50;;;72.07;;
39600;SDS011;25297;44.758;11.310;2023-02-23T11:04:25;132.32;;;73.03;;
39600;SDS011;25297;44.758;11.310;2023-02-23T11:09:46;133.50;;;75.38;;
39600;SDS011;25297;44.758;11.310;2023-02-23T11:12:22;136.70;;;75.10;;
39600;SDS011;25297;44.758;11.310;2023-02-23T11:15:00;145.77;;;75.75;;
39600;SDS011;25297;44.758;11.310;2023-02-23T11:17:45;142.15;;;72.75;;
39600;SDS011;25297;44.758;11.310;2023-02-23T11:20:30;142.68;;;78.70;;
39600;SDS011;25297;44.758;11.310;2023-02-23T11:25:45;139.52;;;74.43;;
39600;SDS011;25297;44.758;11.310;2023-02-23T11:28:15;144.48;;;73.90;;
39600;SDS011;25297;44.758;11.310;2023-02-23T11:30:45;132.65;;;71.95;;
39600;SDS011;25297;44.758;11.310;2023-02-23T11:33:15;142.45;;;74.47;;
39600;SDS011;25297;44.758;11.310;2023-02-23T11:35:46;129.77;;;70.80;;
39600;SDS011;25297;44.758;11.310;2023-02-23T11:38:22;129.10;;;72.60;;
39600;SDS011;25297;44.758;11.310;2023-02-23T11:41:01;133.40;;;69.15;;
39600;SDS011;25297;44.758;11.310;2023-02-23T11:43:28;133.68;;;71.28;;
39600;SDS011;25297;44.758;11.310;2023-02-23T11:45:55;117.13;;;66.53;;
39600;SDS011;25297;44.758;11.310;2023-02-23T11:50:49;125.88;;;70.13;;
39600;SDS011;25297;44.758;11.310;2023-02-23T11:53:18;125.70;;;68.50;;
39600;SDS011;25297;44.758;11.310;2023-02-23T11:55:53;127.25;;;69.13;;
39600;SDS011;25297;44.758;11.310;2023-02-23T12:01:02;115.97;;;65.18;;
39600;SDS011;25297;44.758;11.310;2023-02-23T12:04:23;120.93;;;68.30;;
39600;SDS011;25297;44.758;11.310;2023-02-23T12:06:40;117.97;;;64.35;;
39600;SDS011;25297;44.758;11.310;2023-02-23T12:09:22;119.68;;;65.53;;
39600;SDS011;25297;44.758;11.310;2023-02-23T12:11:59;114.80;;;63.40;;
39600;SDS011;25297;44.758;11.310;2023-02-23T12:14:32;106.15;;;58.83;;
39600;SDS011;25297;44.758;11.310;2023-02-23T12:17:10;119.70;;;63.88;;
39600;SDS011;25297;44.758;11.310;2023-02-23T12:20:01;115.90;;;60.35;;
39600;SDS011;25297;44.758;11.310;2023-02-23T12:22:38;98.20;;;53.95;;
39600;SDS011;25297;44.758;11.310;2023-02-23T12:25:12;101.88;;;53.40;;
39600;SDS011;25297;44.758;11.310;2023-02-23T12:40:41;98.57;;;51.92;;
39600;SDS011;25297;44.758;11.310;2023-02-23T12:43:16;98.70;;;51.60;;
39600;SDS011;25297;44.758;11.310;2023-02-23T12:45:55;112.30;;;58.20;;
39600;SDS011;25297;44.758;11.310;2023-02-23T12:49:29;89.70;;;51.47;;
39600;SDS011;25297;44.758;11.310;2023-02-23T12:54:39;95.25;;;56.05;;
39600;SDS011;25297;44.758;11.310;2023-02-23T12:57:09;87.82;;;50.45;;
39600;SDS011;25297;44.758;11.310;2023-02-23T12:59:55;91.00;;;51.53;;
39600;SDS011;25297;44.758;11.310;2023-02-23T13:02:42;85.30;;;48.40;;
39600;SDS011;25297;44.758;11.310;2023-02-23T13:05:15;91.75;;;51.70;;
39600;SDS011;25297;44.758;11.310;2023-02-23T13:08:01;93.20;;;50.58;;
39600;SDS011;25297;44.758;11.310;2023-02-23T13:10:49;90.97;;;52.00;;
39600;SDS011;25297;44.758;11.310;2023-02-23T13:21:42;91.78;;;50.90;;
39600;SDS011;25297;44.758;11.310;2023-02-23T13:24:17;83.45;;;47.33;;
39600;SDS011;25297;44.758;11.310;2023-02-23T13:32:14;80.10;;;45.58;;
39600;SDS011;25297;44.758;11.310;2023-02-23T13:34:55;83.75;;;43.85;;
39600;SDS011;25297;44.758;11.310;2023-02-23T13:42:52;73.00;;;42.73;;
39600;SDS011;25297;44.758;11.310;2023-02-23T13:51:27;75.45;;;43.13;;
39600;SDS011;25297;44.758;11.310;2023-02-23T13:54:00;76.03;;;44.05;;
39600;SDS011;25297;44.758;11.310;2023-02-23T13:56:47;74.72;;;42.25;;
39600;SDS011;25297;44.758;11.310;2023-02-23T13:59:18;80.37;;;44.73;;
39600;SDS011;25297;44.758;11.310;2023-02-23T14:01:47;80.50;;;43.97;;
39600;SDS011;25297;44.758;11.310;2023-02-23T14:06:59;83.07;;;45.10;;
39600;SDS011;25297;44.758;11.310;2023-02-23T14:09:36;78.90;;;44.15;;
39600;SDS011;25297;44.758;11.310;2023-02-23T14:14:38;84.22;;;44.15;;
39600;SDS011;25297;44.758;11.310;2023-02-23T14:19:38;92.93;;;48.05;;
39600;SDS011;25297;44.758;11.310;2023-02-23T14:22:29;86.10;;;48.53;;
39600;SDS011;25297;44.758;11.310;2023-02-23T14:28:01;89.63;;;50.35;;
39600;SDS011;25297;44.758;11.310;2023-02-23T14:30:54;88.35;;;51.10;;
39600;SDS011;25297;44.758;11.310;2023-02-23T14:33:33;90.38;;;52.33;;
39600;SDS011;25297;44.758;11.310;2023-02-23T14:36:00;88.78;;;49.38;;
39600;SDS011;25297;44.758;11.310;2023-02-23T14:42:13;94.20;;;50.70;;
39600;SDS011;25297;44.758;11.310;2023-02-23T14:44:23;87.78;;;50.92;;
39600;SDS011;25297;44.758;11.310;2023-02-23T14:49:26;86.57;;;49.53;;
39600;SDS011;25297;44.758;11.310;2023-02-23T14:51:56;85.95;;;49.80;;
39600;SDS011;25297;44.758;11.310;2023-02-23T14:54:29;90.63;;;48.45;;
39600;SDS011;25297;44.758;11.310;2023-02-23T14:56:58;84.43;;;51.10;;
39600;SDS011;25297;44.758;11.310;2023-02-23T14:59:35;90.10;;;51.80;;
39600;SDS011;25297;44.758;11.310;2023-02-23T15:02:06;95.15;;;53.55;;
39600;SDS011;25297;44.758;11.310;2023-02-23T15:04:40;90.43;;;51.00;;
39600;SDS011;25297;44.758;11.310;2023-02-23T15:07:10;96.53;;;53.10;;
39600;SDS011;25297;44.758;11.310;2023-02-23T15:09:56;89.13;;;51.58;;
39600;SDS011;25297;44.758;11.310;2023-02-23T15:12:33;89.85;;;51.42;;
39600;SDS011;25297;44.758;11.310;2023-02-23T15:15:02;88.03;;;51.63;;
39600;SDS011;25297;44.758;11.310;2023-02-23T15:17:32;90.47;;;52.25;;
39600;SDS011;25297;44.758;11.310;2023-02-23T15:20:00;94.50;;;52.40;;
39600;SDS011;25297;44.758;11.310;2023-02-23T15:22:31;95.13;;;53.90;;
39600;SDS011;25297;44.758;11.310;2023-02-23T15:25:00;96.63;;;55.38;;
39600;SDS011;25297;44.758;11.310;2023-02-23T15:27:37;95.93;;;53.08;;
39600;SDS011;25297;44.758;11.310;2023-02-23T15:30:42;95.10;;;52.50;;
39600;SDS011;25297;44.758;11.310;2023-02-23T15:33:13;94.35;;;55.22;;
39600;SDS011;25297;44.758;11.310;2023-02-23T15:35:42;91.45;;;53.15;;
39600;SDS011;25297;44.758;11.310;2023-02-23T15:38:16;89.57;;;53.67;;
39600;SDS011;25297;44.758;11.310;2023-02-23T15:40:48;91.05;;;54.17;;
39600;SDS011;25297;44.758;11.310;2023-02-23T15:43:18;95.40;;;52.30;;
39600;SDS011;25297;44.758;11.310;2023-02-23T15:45:45;96.00;;;55.80;;
39600;SDS011;25297;44.758;11.310;2023-02-23T15:48:24;96.65;;;55.88;;
39600;SDS011;25297;44.758;11.310;2023-02-23T15:50:56;106.55;;;60.40;;
39600;SDS011;25297;44.758;11.310;2023-02-23T15:53:24;98.65;;;57.88;;
39600;SDS011;25297;44.758;11.310;2023-02-23T15:55:53;104.55;;;57.92;;
39600;SDS011;25297;44.758;11.310;2023-02-23T15:58:26;99.63;;;57.47;;
39600;SDS011;25297;44.758;11.310;2023-02-23T16:00:55;101.30;;;55.83;;
39600;SDS011;25297;44.758;11.310;2023-02-23T16:03:31;94.45;;;54.55;;
39600;SDS011;25297;44.758;11.310;2023-02-23T16:06:06;97.93;;;55.38;;
39600;SDS011;25297;44.758;11.310;2023-02-23T16:08:57;97.18;;;55.85;;
39600;SDS011;25297;44.758;11.310;2023-02-23T16:11:23;105.30;;;58.70;;
39600;SDS011;25297;44.758;11.310;2023-02-23T16:13:50;112.40;;;63.40;;
39600;SDS011;25297;44.758;11.310;2023-02-23T16:16:17;109.03;;;62.20;;
39600;SDS011;25297;44.758;11.310;2023-02-23T16:21:19;109.50;;;61.55;;
39600;SDS011;25297;44.758;11.310;2023-02-23T16:23:48;105.88;;;63.30;;
39600;SDS011;25297;44.758;11.310;2023-02-23T16:26:24;108.40;;;62.45;;
39600;SDS011;25297;44.758;11.310;2023-02-23T16:28:58;102.07;;;58.20;;
39600;SDS011;25297;44.758;11.310;2023-02-23T16:31:42;108.03;;;60.65;;
39600;SDS011;25297;44.758;11.310;2023-02-23T16:34:23;103.07;;;61.55;;
39600;SDS011;25297;44.758;11.310;2023-02-23T16:36:53;106.18;;;61.50;;
39600;SDS011;25297;44.758;11.310;2023-02-23T16:41:49;105.68;;;61.53;;
39600;SDS011;25297;44.758;11.310;2023-02-23T16:44:19;101.53;;;61.72;;
39600;SDS011;25297;44.758;11.310;2023-02-23T16:46:55;106.13;;;60.72;;
39600;SDS011;25297;44.758;11.310;2023-02-23T16:49:36;106.85;;;60.20;;
39600;SDS011;25297;44.758;11.310;2023-02-23T16:52:02;105.82;;;61.00;;
39600;SDS011;25297;44.758;11.310;2023-02-23T16:54:37;101.43;;;59.33;;
39600;SDS011;25297;44.758;11.310;2023-02-23T16:57:02;104.78;;;56.78;;
39600;SDS011;25297;44.758;11.310;2023-02-23T16:59:30;102.28;;;57.67;;
39600;SDS011;25297;44.758;11.310;2023-02-23T17:01:56;96.97;;;57.75;;